Time;durP1;ratioP1;P1;durP2;ratioP2;P2;SDS_P1;SDS_P2;PMS_P1;PMS_P2;Temp;Humidity;BMP_temperature;BMP_pressure;BME280_temperature;BME280_humidity;BME280_pressure;Samples;Min_cycle;Max_cycle;Signal;HPM_P1;HPM_P2
2021/03/02 00:09:53;;;;;;;2.20;1.50;;;13.20;99.90;;;;;;20772287;28;20253;-70
2021/03/02 00:20:12;;;;;;;5.87;2.10;;;13.00;99.90;;;;;;20771340;28;20209;-70
2021/03/02 00:30:17;;;;;;;1.03;0.70;;;12.90;99.90;;;;;;20774976;28;20566;-70
2021/03/02 00:40:20;;;;;;;0.70;0.70;;;12.90;99.90;;;;;;20769774;28;20340;-69
2021/03/02 00:50:27;;;;;;;2.20;0.93;;;12.90;99.90;;;;;;20750386;28;20373;-68
2021/03/02 01:00:30;;;;;;;0.50;0.50;;;13.10;99.90;;;;;;20743244;23;20236;-68
2021/03/02 01:10:33;;;;;;;1.23;1.13;;;13.20;99.90;;;;;;20771851;28;20233;-68
2021/03/02 01:20:48;;;;;;;1.10;1.00;;;13.10;99.90;;;;;;20779974;28;20700;-68
2021/03/02 01:30:51;;;;;;;2.03;1.83;;;13.10;99.90;;;;;;20784811;28;20281;-68
2021/03/02 01:40:55;;;;;;;1.37;1.27;;;13.10;99.90;;;;;;20783449;28;20205;-67
2021/03/02 01:51:11;;;;;;;2.30;1.37;;;13.00;99.90;;;;;;20783853;28;20280;-68
2021/03/02 02:01:15;;;;;;;3.80;1.57;;;13.00;99.90;;;;;;20781684;28;20271;-68
2021/03/02 02:11:30;;;;;;;0.40;0.40;;;13.10;99.90;;;;;;20763705;28;20651;-69
2021/03/02 02:21:51;;;;;;;4.67;2.63;;;13.20;99.90;;;;;;20782134;28;20206;-68
2021/03/02 02:31:58;;;;;;;4.47;1.93;;;13.10;99.90;;;;;;20777646;28;20320;-67
2021/03/02 02:42:02;;;;;;;2.47;2.23;;;13.20;99.90;;;;;;20777648;28;20202;-67
2021/03/02 02:52:06;;;;;;;0.73;0.73;;;13.20;99.90;;;;;;20778006;28;20240;-69
2021/03/02 03:02:11;;;;;;;0.73;0.73;;;13.20;99.90;;;;;;20777379;28;20300;-69
2021/03/02 03:12:18;;;;;;;1.63;1.47;;;13.10;99.90;;;;;;20794720;28;20625;-69
2021/03/02 03:22:21;;;;;;;2.27;1.43;;;12.80;99.90;;;;;;20775849;28;20711;-67
2021/03/02 03:32:25;;;;;;;1.60;1.50;;;12.50;99.90;;;;;;20775465;28;20302;-68
2021/03/02 03:42:28;;;;;;;0.73;0.70;;;12.30;99.90;;;;;;20755561;28;20198;-68
2021/03/02 03:52:43;;;;;;;0.50;0.50;;;12.10;99.90;;;;;;20772933;28;20222;-68
2021/03/02 04:02:47;;;;;;;2.27;1.20;;;12.30;99.90;;;;;;20774075;28;20230;-69
2021/03/02 04:12:51;;;;;;;0.80;0.80;;;12.40;99.90;;;;;;20772807;28;20303;-69
2021/03/02 04:23:03;;;;;;;0.40;0.40;;;12.60;99.90;;;;;;20772191;28;20209;-69
2021/03/02 04:33:07;;;;;;;1.97;1.53;;;12.70;99.90;;;;;;20771404;28;20221;-68
2021/03/02 04:43:10;;;;;;;1.23;0.57;;;12.70;99.90;;;;;;20771461;28;20210;-68
2021/03/02 04:53:25;;;;;;;0.60;0.60;;;12.50;99.90;;;;;;20777322;28;20633;-69
2021/03/02 05:03:28;;;;;;;3.53;1.63;;;12.90;99.90;;;;;;20786904;28;20234;-68
2021/03/02 05:13:31;;;;;;;1.87;1.27;;;13.00;99.90;;;;;;20785856;28;20312;-68
2021/03/02 05:23:45;;;;;;;1.03;0.77;;;12.90;99.90;;;;;;20779997;28;20618;-69
2021/03/02 05:33:48;;;;;;;1.67;1.37;;;12.90;99.90;;;;;;20782543;28;20225;-69
2021/03/02 05:43:51;;;;;;;1.10;1.00;;;13.00;99.90;;;;;;20785582;28;20500;-68
2021/03/02 05:54:12;;;;;;;0.63;0.57;;;13.10;99.90;;;;;;20784620;28;20640;-69
2021/03/02 06:04:16;;;;;;;2.17;1.27;;;13.20;99.90;;;;;;20779501;28;20230;-68
2021/03/02 06:14:21;;;;;;;0.70;0.70;;;13.20;99.90;;;;;;20781073;28;20710;-68
2021/03/02 06:24:35;;;;;;;13.00;1.47;;;13.10;99.90;;;;;;20779972;28;20196;-69
2021/03/02 06:34:49;;;;;;;0.63;0.50;;;13.10;99.90;;;;;;20779046;28;20356;-68
2021/03/02 06:44:54;;;;;;;1.07;0.97;;;13.30;99.90;;;;;;20776317;28;20637;-68
2021/03/02 06:55:00;;;;;;;0.70;0.63;;;13.20;99.90;;;;;;20775176;28;20465;-69
2021/03/02 07:05:10;;;;;;;0.30;0.30;;;13.40;99.90;;;;;;20769952;28;20226;-68
2021/03/02 07:15:17;;;;;;;1.97;0.73;;;13.50;99.90;;;;;;20768518;28;20344;-68
2021/03/02 07:25:21;;;;;;;1.47;0.97;;;13.60;99.90;;;;;;20773110;28;20585;-68
2021/03/02 07:35:25;;;;;;;5.53;1.17;;;13.80;99.90;;;;;;20773997;28;20213;-68
2021/03/02 07:45:30;;;;;;;0.73;0.50;;;13.90;99.90;;;;;;20770895;28;20623;-67
2021/03/02 07:55:36;;;;;;;0.87;0.87;;;14.00;99.90;;;;;;20769622;28;20205;-69
2021/03/02 08:05:39;;;;;;;1.73;1.30;;;14.20;99.90;;;;;;20770203;28;20388;-68
2021/03/02 08:15:42;;;;;;;1.53;1.43;;;14.30;99.90;;;;;;20771268;28;20250;-68
2021/03/02 08:26:36;;;;;;;0.33;0.33;;;14.40;99.90;;;;;;20769336;28;20324;-68
2021/03/02 08:36:39;;;;;;;1.47;1.07;;;14.50;99.90;;;;;;20765046;28;20253;-69
2021/03/02 08:46:43;;;;;;;1.30;0.60;;;14.30;99.90;;;;;;20762614;28;20217;-68
2021/03/02 08:56:47;;;;;;;0.37;0.37;;;14.20;99.90;;;;;;20769465;28;20206;-68
2021/03/02 09:06:52;;;;;;;0.60;0.60;;;14.30;99.90;;;;;;20768412;28;20242;-68
2021/03/02 09:16:59;;;;;;;6.80;1.50;;;14.40;99.90;;;;;;20770960;28;20198;-67
2021/03/02 09:27:03;;;;;;;3.10;1.70;;;14.50;99.90;;;;;;20734538;28;20276;-68
2021/03/02 09:37:08;;;;;;;0.70;0.70;;;14.70;99.90;;;;;;20736466;28;20488;-68
2021/03/02 09:47:17;;;;;;;2.00;1.00;;;14.60;99.90;;;;;;20767326;28;20557;-68
2021/03/02 09:57:21;;;;;;;0.67;0.60;;;14.70;99.90;;;;;;20780661;28;20617;-69
2021/03/02 10:07:24;;;;;;;0.90;0.67;;;14.80;99.90;;;;;;20780533;28;20372;-68
2021/03/02 10:17:36;;;;;;;1.90;1.00;;;15.10;99.90;;;;;;20779519;28;20466;-68
2021/03/02 10:27:42;;;;;;;1.53;1.00;;;15.10;99.90;;;;;;20776205;28;20237;-67
2021/03/02 10:37:46;;;;;;;1.43;1.33;;;15.40;99.90;;;;;;20772598;28;20194;-66
2021/03/02 10:47:48;;;;;;;1.27;1.17;;;15.50;99.90;;;;;;20773259;28;20951;-69
2021/03/02 10:57:52;;;;;;;0.50;0.50;;;15.90;99.90;;;;;;20773529;28;20194;-68
2021/03/02 11:07:55;;;;;;;4.63;1.23;;;16.50;99.90;;;;;;20775566;28;20226;-69
2021/03/02 11:17:58;;;;;;;1.10;1.00;;;16.50;99.90;;;;;;20774156;28;20553;-69
2021/03/02 11:28:11;;;;;;;1.33;0.80;;;16.60;99.90;;;;;;20770925;28;20222;-66
2021/03/02 11:38:15;;;;;;;2.80;2.33;;;16.80;99.90;;;;;;20770526;28;20204;-67
2021/03/02 11:48:17;;;;;;;3.80;1.90;;;16.80;99.90;;;;;;20770468;28;20283;-65
2021/03/02 11:58:32;;;;;;;5.13;2.13;;;17.10;99.90;;;;;;20689080;28;20505;-66
2021/03/02 12:08:37;;;;;;;1.27;1.03;;;17.60;99.90;;;;;;20701600;28;20224;-68
2021/03/02 12:18:41;;;;;;;2.10;1.73;;;17.60;99.90;;;;;;20757792;28;20209;-69
2021/03/02 12:28:53;;;;;;;3.57;2.13;;;17.50;99.90;;;;;;20767523;28;20268;-68
2021/03/02 12:38:59;;;;;;;2.80;0.97;;;18.20;99.90;;;;;;20767339;28;20281;-67
2021/03/02 12:49:02;;;;;;;5.23;0.90;;;17.50;99.90;;;;;;20764294;28;20490;-66
2021/03/02 12:59:14;;;;;;;6.23;2.33;;;17.60;99.90;;;;;;20761908;28;20391;-65
2021/03/02 13:09:17;;;;;;;4.10;2.27;;;17.70;99.90;;;;;;20764891;28;20237;-66
2021/03/02 13:19:21;;;;;;;3.13;1.43;;;18.10;99.90;;;;;;20778278;28;20517;-67
2021/03/02 13:29:42;;;;;;;7.37;1.20;;;19.20;99.90;;;;;;20777936;28;20691;-71
2021/03/02 13:39:47;;;;;;;4.23;3.17;;;18.40;99.90;;;;;;20776520;28;20198;-68
2021/03/02 13:49:50;;;;;;;2.50;1.53;;;18.10;99.90;;;;;;20778264;28;20275;-66
2021/03/02 14:00:01;;;;;;;1.30;1.27;;;17.80;99.90;;;;;;20779736;28;20217;-67
2021/03/02 14:10:06;;;;;;;4.50;1.57;;;17.80;99.90;;;;;;20793363;28;20686;-67
2021/03/02 14:20:13;;;;;;;3.77;1.97;;;17.60;99.90;;;;;;20777560;28;20267;-67
2021/03/02 14:30:24;;;;;;;4.30;2.23;;;17.60;99.90;;;;;;20772908;28;20698;-69
2021/03/02 14:40:28;;;;;;;2.57;1.67;;;17.40;99.90;;;;;;20774938;28;20272;-68
2021/03/02 14:50:30;;;;;;;2.77;1.13;;;17.50;99.90;;;;;;20746224;28;20226;-67
2021/03/02 15:00:56;;;;;;;0.90;0.90;;;17.30;99.90;;;;;;20761420;28;20312;-67
2021/03/02 15:11:01;;;;;;;17.77;2.43;;;17.20;99.90;;;;;;20718879;28;20775;-67
2021/03/02 15:21:06;;;;;;;1.67;1.57;;;16.90;99.90;;;;;;20725903;28;20221;-66
2021/03/02 15:31:10;;;;;;;1.53;1.30;;;16.50;99.90;;;;;;20768982;28;20272;-68
2021/03/02 15:41:16;;;;;;;1.50;1.37;;;16.20;99.90;;;;;;20774226;28;20213;-68
2021/03/02 15:51:20;;;;;;;1.60;1.50;;;16.00;99.90;;;;;;20851838;28;20217;-67
2021/03/02 16:01:41;;;;;;;1.77;1.67;;;15.70;99.90;;;;;;20833410;28;20231;-67
2021/03/02 16:11:47;;;;;;;0.83;0.83;;;15.50;99.90;;;;;;20811182;28;20272;-66
2021/03/02 16:21:57;;;;;;;3.90;2.03;;;15.40;99.90;;;;;;20757179;28;20202;-66
2021/03/02 16:32:00;;;;;;;11.43;1.43;;;15.40;99.90;;;;;;20760492;28;20692;-67
2021/03/02 16:42:06;;;;;;;2.30;0.97;;;15.00;99.90;;;;;;20760083;28;20538;-68
2021/03/02 16:52:12;;;;;;;2.00;1.87;;;14.80;99.90;;;;;;20778560;28;20225;-69
2021/03/02 17:02:24;;;;;;;2.83;1.10;;;14.80;99.90;;;;;;20785975;28;20597;-69
2021/03/02 17:12:27;;;;;;;2.07;1.60;;;14.60;99.90;;;;;;20780152;28;20210;-69
2021/03/02 17:22:31;;;;;;;16.80;4.80;;;14.50;99.90;;;;;;20780739;28;20198;-67
2021/03/02 17:32:38;;;;;;;2.03;1.50;;;14.40;99.90;;;;;;20782423;28;20234;-67
2021/03/02 17:42:47;;;;;;;11.93;4.07;;;14.40;99.90;;;;;;20780639;28;20198;-68
2021/03/02 17:52:49;;;;;;;0.57;0.30;;;14.20;99.90;;;;;;20781186;28;20240;-68
2021/03/02 18:03:01;;;;;;;10.07;2.03;;;14.20;99.90;;;;;;20778378;28;20241;-68
2021/03/02 18:13:06;;;;;;;3.60;1.50;;;13.90;99.90;;;;;;20780541;28;20702;-68
2021/03/02 18:23:11;;;;;;;1.63;0.83;;;14.00;99.90;;;;;;20778893;28;20324;-69
2021/03/02 18:33:23;;;;;;;1.50;1.40;;;13.80;99.90;;;;;;20774622;28;20344;-66
2021/03/02 18:43:31;;;;;;;1.37;1.10;;;13.80;99.90;;;;;;20776100;28;20221;-68
2021/03/02 18:53:34;;;;;;;3.90;2.10;;;13.80;99.90;;;;;;20776054;28;20695;-67
2021/03/02 19:03:48;;;;;;;2.77;1.30;;;13.70;99.90;;;;;;20771347;28;20687;-66
2021/03/02 19:13:51;;;;;;;1.03;1.00;;;13.70;99.90;;;;;;20775701;28;20230;-67
2021/03/02 19:23:54;;;;;;;1.40;1.30;;;13.70;99.90;;;;;;20772666;28;20202;-69
2021/03/02 19:34:12;;;;;;;1.63;1.40;;;13.60;99.90;;;;;;20771329;28;20226;-66
2021/03/02 19:44:15;;;;;;;1.07;1.03;;;13.50;99.90;;;;;;20771581;28;20281;-64
2021/03/02 19:54:18;;;;;;;2.10;1.27;;;13.50;99.90;;;;;;20769683;28;20240;-66
2021/03/02 20:04:32;;;;;;;1.10;1.00;;;13.60;99.90;;;;;;20770929;28;20271;-66
2021/03/02 20:14:44;;;;;;;38.87;3.07;;;13.40;99.90;;;;;;20768876;28;20226;-67
2021/03/02 20:24:50;;;;;;;6.20;1.90;;;13.30;99.90;;;;;;20766959;28;20679;-66
2021/03/02 20:34:55;;;;;;;7.33;1.80;;;13.30;99.90;;;;;;20766883;28;20233;-66
2021/03/02 20:44:59;;;;;;;7.07;2.07;;;13.40;99.90;;;;;;20767499;28;20198;-67
2021/03/02 20:55:02;;;;;;;1.90;1.70;;;13.30;99.90;;;;;;20768800;28;20225;-67
2021/03/02 21:05:17;;;;;;;1.83;1.73;;;13.20;99.90;;;;;;20767704;28;21043;-68
2021/03/02 21:15:20;;;;;;;5.33;2.10;;;13.10;99.90;;;;;;20767014;28;20222;-67
2021/03/02 21:25:28;;;;;;;6.33;2.00;;;13.00;99.90;;;;;;20767763;28;20324;-67
2021/03/02 21:35:36;;;;;;;7.93;1.67;;;13.00;99.90;;;;;;20772166;28;20576;-67
2021/03/02 21:45:44;;;;;;;2.97;2.57;;;12.90;99.90;;;;;;20780799;28;20190;-67
2021/03/02 21:55:49;;;;;;;0.47;0.47;;;12.90;99.90;;;;;;20781596;28;20253;-68
2021/03/02 22:06:06;;;;;;;2.73;2.43;;;12.90;99.90;;;;;;20779883;28;20245;-67
2021/03/02 22:16:09;;;;;;;1.80;1.40;;;12.80;99.90;;;;;;20779633;28;20229;-67
2021/03/02 22:26:12;;;;;;;1.47;1.03;;;12.70;99.90;;;;;;20779320;28;20674;-68
2021/03/02 22:36:23;;;;;;;3.80;1.40;;;12.40;99.90;;;;;;20779314;28;20245;-66
2021/03/02 22:46:27;;;;;;;0.70;0.70;;;12.30;99.90;;;;;;20759963;28;20281;-66
2021/03/02 22:56:30;;;;;;;1.73;1.63;;;12.20;99.90;;;;;;20775134;28;20232;-67
2021/03/02 23:06:45;;;;;;;1.90;1.80;;;12.10;99.90;;;;;;20774397;28;20222;-68
2021/03/02 23:16:48;;;;;;;2.73;1.93;;;12.20;99.90;;;;;;20773041;28;20226;-67
2021/03/02 23:26:52;;;;;;;2.67;2.03;;;12.10;99.90;;;;;;20771163;28;20553;-66
2021/03/02 23:37:05;;;;;;;9.20;3.10;;;12.10;99.90;;;;;;20770493;28;20191;-66
2021/03/02 23:47:09;;;;;;;0.60;0.60;;;12.10;99.90;;;;;;20769915;28;20542;-68
2021/03/02 23:57:11;;;;;;;1.43;1.27;;;12.10;99.90;;;;;;20771245;28;20712;-68
